sensor_id;sensor_type;location;lat;lon;timestamp;pressure;altitude;pressure_sealevel;temperature;humidity
53550;BME280;67273;52.914;-0.982;2023-03-04T00:00:11;102851.16;;;17.86;41.30
53550;BME280;67273;52.914;-0.982;2023-03-04T00:02:38;102844.88;;;17.85;41.47
53550;BME280;67273;52.914;-0.982;2023-03-04T00:05:05;102843.16;;;17.84;41.19
53550;BME280;67273;52.914;-0.982;2023-03-04T00:07:30;102849.59;;;17.83;41.30
53550;BME280;67273;52.914;-0.982;2023-03-04T00:09:56;102841.44;;;17.83;41.47
53550;BME280;67273;52.914;-0.982;2023-03-04T00:12:22;102852.31;;;17.83;41.36
53550;BME280;67273;52.914;-0.982;2023-03-04T00:14:48;102851.47;;;17.83;41.45
53550;BME280;67273;52.914;-0.982;2023-03-04T00:17:13;102849.81;;;17.82;41.34
53550;BME280;67273;52.914;-0.982;2023-03-04T00:19:40;102850.81;;;17.81;41.54
53550;BME280;67273;52.914;-0.982;2023-03-04T00:22:06;102850.16;;;17.79;41.33
53550;BME280;67273;52.914;-0.982;2023-03-04T00:24:32;102850.16;;;17.79;41.37
53550;BME280;67273;52.914;-0.982;2023-03-04T00:26:58;102844.91;;;17.77;41.30
53550;BME280;67273;52.914;-0.982;2023-03-04T00:29:24;102849.50;;;17.77;41.17
53550;BME280;67273;52.914;-0.982;2023-03-04T00:31:49;102848.63;;;17.76;41.17
53550;BME280;67273;52.914;-0.982;2023-03-04T00:34:15;102850.50;;;17.76;41.17
53550;BME280;67273;52.914;-0.982;2023-03-04T00:36:42;102846.28;;;17.73;41.32
53550;BME280;67273;52.914;-0.982;2023-03-04T00:39:09;102851.56;;;17.75;41.52
53550;BME280;67273;52.914;-0.982;2023-03-04T00:41:34;102843.56;;;17.73;41.38
53550;BME280;67273;52.914;-0.982;2023-03-04T00:44:01;102848.13;;;17.73;41.24
53550;BME280;67273;52.914;-0.982;2023-03-04T00:46:27;102855.47;;;17.72;41.37
53550;BME280;67273;52.914;-0.982;2023-03-04T00:48:53;102851.91;;;17.72;41.42
53550;BME280;67273;52.914;-0.982;2023-03-04T00:51:18;102846.63;;;17.70;41.29
53550;BME280;67273;52.914;-0.982;2023-03-04T00:53:45;102852.91;;;17.71;41.24
53550;BME280;67273;52.914;-0.982;2023-03-04T00:56:12;102852.25;;;17.68;41.37
53550;BME280;67273;52.914;-0.982;2023-03-04T00:58:38;102843.25;;;17.68;41.39
53550;BME280;67273;52.914;-0.982;2023-03-04T01:01:04;102847.81;;;17.67;41.49
53550;BME280;67273;52.914;-0.982;2023-03-04T01:03:30;102846.16;;;17.66;41.56
53550;BME280;67273;52.914;-0.982;2023-03-04T01:05:57;102847.81;;;17.67;41.46
53550;BME280;67273;52.914;-0.982;2023-03-04T01:08:23;102845.31;;;17.66;41.66
53550;BME280;67273;52.914;-0.982;2023-03-04T01:10:50;102849.88;;;17.65;41.25
53550;BME280;67273;52.914;-0.982;2023-03-04T01:13:17;102843.78;;;17.63;41.33
53550;BME280;67273;52.914;-0.982;2023-03-04T01:15:42;102840.41;;;17.61;41.56
53550;BME280;67273;52.914;-0.982;2023-03-04T01:18:09;102854.00;;;17.61;41.58
53550;BME280;67273;52.914;-0.982;2023-03-04T01:20:34;102847.72;;;17.61;41.30
53550;BME280;67273;52.914;-0.982;2023-03-04T01:23:01;102852.28;;;17.60;41.38
53550;BME280;67273;52.914;-0.982;2023-03-04T01:25:27;102849.56;;;17.60;41.35
53550;BME280;67273;52.914;-0.982;2023-03-04T01:27:54;102855.22;;;17.59;41.51
53550;BME280;67273;52.914;-0.982;2023-03-04T01:30:20;102848.91;;;17.58;41.45
53550;BME280;67273;52.914;-0.982;2023-03-04T01:32:46;102841.78;;;17.57;41.33
53550;BME280;67273;52.914;-0.982;2023-03-04T01:35:12;102849.94;;;17.57;41.42
53550;BME280;67273;52.914;-0.982;2023-03-04T01:37:37;102853.69;;;17.56;41.46
53550;BME280;67273;52.914;-0.982;2023-03-04T01:40:04;102843.84;;;17.55;41.45
53550;BME280;67273;52.914;-0.982;2023-03-04T01:42:32;102837.53;;;17.55;41.51
53550;BME280;67273;52.914;-0.982;2023-03-04T01:45:00;102835.88;;;17.54;41.25
53550;BME280;67273;52.914;-0.982;2023-03-04T01:47:28;102845.88;;;17.53;41.59
53550;BME280;67273;52.914;-0.982;2023-03-04T01:49:56;102839.59;;;17.53;41.42
53550;BME280;67273;52.914;-0.982;2023-03-04T01:52:23;102834.16;;;17.53;41.60
53550;BME280;67273;52.914;-0.982;2023-03-04T01:54:50;102834.34;;;17.51;41.54
53550;BME280;67273;52.914;-0.982;2023-03-04T01:57:18;102826.19;;;17.51;41.40
53550;BME280;67273;52.914;-0.982;2023-03-04T01:59:45;102828.06;;;17.51;41.22
53550;BME280;67273;52.914;-0.982;2023-03-04T02:02:13;102827.22;;;17.50;41.48
53550;BME280;67273;52.914;-0.982;2023-03-04T02:04:40;102828.25;;;17.49;41.45
53550;BME280;67273;52.914;-0.982;2023-03-04T02:07:07;102822.81;;;17.49;41.47
53550;BME280;67273;52.914;-0.982;2023-03-04T02:09:33;102821.09;;;17.48;41.32
53550;BME280;67273;52.914;-0.982;2023-03-04T02:12:01;102815.88;;;17.46;41.53
53550;BME280;67273;52.914;-0.982;2023-03-04T02:14:27;102815.88;;;17.46;41.50
53550;BME280;67273;52.914;-0.982;2023-03-04T02:16:54;102805.19;;;17.45;41.51
53550;BME280;67273;52.914;-0.982;2023-03-04T02:19:32;102801.59;;;17.44;41.39
53550;BME280;67273;52.914;-0.982;2023-03-04T02:22:00;102795.31;;;17.44;41.26
53550;BME280;67273;52.914;-0.982;2023-03-04T02:24:28;102803.47;;;17.44;41.25
53550;BME280;67273;52.914;-0.982;2023-03-04T02:26:59;102798.03;;;17.44;41.38
53550;BME280;67273;52.914;-0.982;2023-03-04T02:29:27;102796.34;;;17.43;41.39
53550;BME280;67273;52.914;-0.982;2023-03-04T02:31:54;102792.78;;;17.42;41.31
53550;BME280;67273;52.914;-0.982;2023-03-04T02:34:22;102791.09;;;17.41;41.33
53550;BME280;67273;52.914;-0.982;2023-03-04T02:36:51;102786.69;;;17.40;41.39
53550;BME280;67273;52.914;-0.982;2023-03-04T02:39:22;102792.94;;;17.41;41.49
53550;BME280;67273;52.914;-0.982;2023-03-04T02:41:52;102785.84;;;17.40;41.34
53550;BME280;67273;52.914;-0.982;2023-03-04T02:44:24;102789.56;;;17.39;41.52
53550;BME280;67273;52.914;-0.982;2023-03-04T02:46:53;102792.28;;;17.39;41.46
53550;BME280;67273;52.914;-0.982;2023-03-04T02:49:23;102779.75;;;17.38;41.41
53550;BME280;67273;52.914;-0.982;2023-03-04T02:51:52;102785.19;;;17.38;41.34
53550;BME280;67273;52.914;-0.982;2023-03-04T02:54:25;102778.03;;;17.37;41.30
53550;BME280;67273;52.914;-0.982;2023-03-04T02:56:55;102775.50;;;17.35;41.24
53550;BME280;67273;52.914;-0.982;2023-03-04T02:59:26;102773.66;;;17.36;41.40
53550;BME280;67273;52.914;-0.982;2023-03-04T03:01:57;102781.78;;;17.36;41.40
53550;BME280;67273;52.914;-0.982;2023-03-04T03:04:27;102782.81;;;17.35;41.53
53550;BME280;67273;52.914;-0.982;2023-03-04T03:06:55;102781.09;;;17.34;41.11
53550;BME280;67273;52.914;-0.982;2023-03-04T03:09:25;102784.88;;;17.33;41.38
53550;BME280;67273;52.914;-0.982;2023-03-04T03:11:53;102780.44;;;17.32;41.18
53550;BME280;67273;52.914;-0.982;2023-03-04T03:14:21;102779.44;;;17.33;41.27
53550;BME280;67273;52.914;-0.982;2023-03-04T03:16:51;102780.63;;;17.30;41.54
53550;BME280;67273;52.914;-0.982;2023-03-04T03:19:18;102776.06;;;17.31;41.28
53550;BME280;67273;52.914;-0.982;2023-03-04T03:21:46;102779.78;;;17.29;41.43
53550;BME280;67273;52.914;-0.982;2023-03-04T03:24:12;102773.69;;;17.27;41.40
53550;BME280;67273;52.914;-0.982;2023-03-04T03:26:40;102773.69;;;17.27;41.29
53550;BME280;67273;52.914;-0.982;2023-03-04T03:29:09;102779.13;;;17.27;41.45
53550;BME280;67273;52.914;-0.982;2023-03-04T03:31:37;102773.69;;;17.27;41.23
53550;BME280;67273;52.914;-0.982;2023-03-04T03:34:08;102782.84;;;17.26;41.33
53550;BME280;67273;52.914;-0.982;2023-03-04T03:36:37;102778.44;;;17.25;41.10
53550;BME280;67273;52.914;-0.982;2023-03-04T03:39:05;102782.19;;;17.24;41.30
53550;BME280;67273;52.914;-0.982;2023-03-04T03:41:34;102772.34;;;17.23;41.43
53550;BME280;67273;52.914;-0.982;2023-03-04T03:44:02;102765.03;;;17.24;41.21
53550;BME280;67273;52.914;-0.982;2023-03-04T03:46:31;102770.47;;;17.24;41.30
53550;BME280;67273;52.914;-0.982;2023-03-04T03:48:59;102774.22;;;17.23;41.37
53550;BME280;67273;52.914;-0.982;2023-03-04T03:51:29;102763.50;;;17.21;41.24
53550;BME280;67273;52.914;-0.982;2023-03-04T03:53:54;102772.53;;;17.22;41.17
53550;BME280;67273;52.914;-0.982;2023-03-04T03:56:20;102756.41;;;17.20;41.36
53550;BME280;67273;52.914;-0.982;2023-03-04T03:58:46;102752.84;;;17.20;41.14
53550;BME280;67273;52.914;-0.982;2023-03-04T04:01:12;102752.84;;;17.20;41.31
53550;BME280;67273;52.914;-0.982;2023-03-04T04:03:37;102752.84;;;17.20;41.18
53550;BME280;67273;52.914;-0.982;2023-03-04T04:06:05;102751.16;;;17.19;41.18
53550;BME280;67273;52.914;-0.982;2023-03-04T04:08:35;102745.72;;;17.19;41.35
53550;BME280;67273;52.914;-0.982;2023-03-04T04:11:03;102744.88;;;17.18;41.45
53550;BME280;67273;52.914;-0.982;2023-03-04T04:13:33;102744.88;;;17.18;41.19
53550;BME280;67273;52.914;-0.982;2023-03-04T04:16:02;102745.88;;;17.17;41.22
53550;BME280;67273;52.914;-0.982;2023-03-04T04:18:32;102752.38;;;17.16;41.28
53550;BME280;67273;52.914;-0.982;2023-03-04T04:21:00;102752.38;;;17.16;41.29
53550;BME280;67273;52.914;-0.982;2023-03-04T04:23:29;102747.94;;;17.15;41.46
53550;BME280;67273;52.914;-0.982;2023-03-04T04:25:57;102743.53;;;17.14;41.04
53550;BME280;67273;52.914;-0.982;2023-03-04T04:28:23;102748.94;;;17.14;41.41
53550;BME280;67273;52.914;-0.982;2023-03-04T04:30:49;102741.84;;;17.13;41.33
53550;BME280;67273;52.914;-0.982;2023-03-04T04:33:15;102750.00;;;17.13;41.26
53550;BME280;67273;52.914;-0.982;2023-03-04T04:35:41;102754.59;;;17.13;41.38
53550;BME280;67273;52.914;-0.982;2023-03-04T04:38:07;102757.31;;;17.13;41.02
53550;BME280;67273;52.914;-0.982;2023-03-04T04:40:33;102761.03;;;17.12;41.28
53550;BME280;67273;52.914;-0.982;2023-03-04T04:43:01;102756.44;;;17.12;41.32
53550;BME280;67273;52.914;-0.982;2023-03-04T04:45:27;102754.75;;;17.11;41.28
53550;BME280;67273;52.914;-0.982;2023-03-04T04:47:53;102751.19;;;17.10;41.03
53550;BME280;67273;52.914;-0.982;2023-03-04T04:50:20;102758.50;;;17.10;41.21
53550;BME280;67273;52.914;-0.982;2023-03-04T04:52:45;102750.50;;;17.08;41.04
53550;BME280;67273;52.914;-0.982;2023-03-04T04:55:11;102755.94;;;17.08;41.30
53550;BME280;67273;52.914;-0.982;2023-03-04T04:57:37;102755.09;;;17.08;40.84
53550;BME280;67273;52.914;-0.982;2023-03-04T05:00:08;102763.25;;;17.08;41.04
53550;BME280;67273;52.914;-0.982;2023-03-04T05:02:36;102759.69;;;17.07;41.02
53550;BME280;67273;52.914;-0.982;2023-03-04T05:05:02;102757.16;;;17.06;41.14
53550;BME280;67273;52.914;-0.982;2023-03-04T05:07:28;102769.69;;;17.07;41.36
53550;BME280;67273;52.914;-0.982;2023-03-04T05:09:54;102768.03;;;17.06;40.88
53550;BME280;67273;52.914;-0.982;2023-03-04T05:12:20;102761.72;;;17.05;41.25
53550;BME280;67273;52.914;-0.982;2023-03-04T05:14:46;102769.03;;;17.05;41.13
53550;BME280;67273;52.914;-0.982;2023-03-04T05:17:13;102767.34;;;17.04;40.97
53550;BME280;67273;52.914;-0.982;2023-03-04T05:19:38;102773.81;;;17.03;41.09
53550;BME280;67273;52.914;-0.982;2023-03-04T05:22:04;102772.09;;;17.02;40.98
53550;BME280;67273;52.914;-0.982;2023-03-04T05:24:30;102766.66;;;17.02;41.13
53550;BME280;67273;52.914;-0.982;2023-03-04T05:26:56;102773.97;;;17.01;41.23
53550;BME280;67273;52.914;-0.982;2023-03-04T05:29:22;102771.25;;;17.01;41.40
53550;BME280;67273;52.914;-0.982;2023-03-04T05:31:47;102776.69;;;17.01;41.35
53550;BME280;67273;52.914;-0.982;2023-03-04T05:34:14;102775.00;;;17.00;41.32
53550;BME280;67273;52.914;-0.982;2023-03-04T05:36:40;102782.28;;;17.00;41.04
53550;BME280;67273;52.914;-0.982;2023-03-04T05:39:06;102779.56;;;17.00;40.87
53550;BME280;67273;52.914;-0.982;2023-03-04T05:41:32;102779.56;;;17.00;41.03
53550;BME280;67273;52.914;-0.982;2023-03-04T05:43:57;102777.91;;;16.99;40.97
53550;BME280;67273;52.914;-0.982;2023-03-04T05:46:23;102782.47;;;16.98;40.91
53550;BME280;67273;52.914;-0.982;2023-03-04T05:48:50;102778.91;;;16.98;41.21
53550;BME280;67273;52.914;-0.982;2023-03-04T05:51:18;102776.19;;;16.98;41.42
53550;BME280;67273;52.914;-0.982;2023-03-04T05:53:44;102775.53;;;16.96;40.87
53550;BME280;67273;52.914;-0.982;2023-03-04T05:56:11;102777.41;;;16.95;40.80
53550;BME280;67273;52.914;-0.982;2023-03-04T05:58:37;102771.97;;;16.95;41.14
53550;BME280;67273;52.914;-0.982;2023-03-04T06:01:04;102781.97;;;16.95;40.81
53550;BME280;67273;52.914;-0.982;2023-03-04T06:03:29;102780.28;;;16.94;41.02
53550;BME280;67273;52.914;-0.982;2023-03-04T06:05:55;102783.84;;;16.94;41.18
53550;BME280;67273;52.914;-0.982;2023-03-04T06:08:23;102785.06;;;16.91;41.02
53550;BME280;67273;52.914;-0.982;2023-03-04T06:10:51;102787.78;;;16.91;41.02
53550;BME280;67273;52.914;-0.982;2023-03-04T06:13:17;102786.06;;;16.90;40.89
53550;BME280;67273;52.914;-0.982;2023-03-04T06:15:43;102786.06;;;16.90;41.21
53550;BME280;67273;52.914;-0.982;2023-03-04T06:18:09;102787.94;;;16.90;41.38
53550;BME280;67273;52.914;-0.982;2023-03-04T06:20:35;102787.13;;;16.89;40.92
53550;BME280;67273;52.914;-0.982;2023-03-04T06:23:01;102786.25;;;16.89;41.27
53550;BME280;67273;52.914;-0.982;2023-03-04T06:25:29;102782.69;;;16.88;41.07
53550;BME280;67273;52.914;-0.982;2023-03-04T06:27:55;102782.69;;;16.88;40.76
53550;BME280;67273;52.914;-0.982;2023-03-04T06:30:22;102780.16;;;16.87;41.22
53550;BME280;67273;52.914;-0.982;2023-03-04T06:32:48;102784.41;;;16.89;41.14
53550;BME280;67273;52.914;-0.982;2023-03-04T06:35:15;102785.38;;;16.97;40.83
53550;BME280;67273;52.914;-0.982;2023-03-04T06:37:41;102788.38;;;17.02;40.88
53550;BME280;67273;52.914;-0.982;2023-03-04T06:40:08;102793.13;;;17.08;40.91
53550;BME280;67273;52.914;-0.982;2023-03-04T06:42:36;102798.03;;;17.13;40.78
53550;BME280;67273;52.914;-0.982;2023-03-04T06:45:02;102791.72;;;17.20;40.65
53550;BME280;67273;52.914;-0.982;2023-03-04T06:47:29;102788.28;;;17.26;40.66
53550;BME280;67273;52.914;-0.982;2023-03-04T06:49:55;102800.44;;;17.39;40.50
53550;BME280;67273;52.914;-0.982;2023-03-04T06:52:21;102793.25;;;17.46;40.25
53550;BME280;67273;52.914;-0.982;2023-03-04T06:54:46;102792.38;;;17.54;40.33
53550;BME280;67273;52.914;-0.982;2023-03-04T06:57:12;102788.41;;;17.64;40.05
53550;BME280;67273;52.914;-0.982;2023-03-04T06:59:39;102801.91;;;17.73;39.90
53550;BME280;67273;52.914;-0.982;2023-03-04T07:02:05;102806.28;;;17.82;39.81
53550;BME280;67273;52.914;-0.982;2023-03-04T07:04:33;102802.34;;;17.93;39.51
53550;BME280;67273;52.914;-0.982;2023-03-04T07:06:59;102807.50;;;18.02;39.43
53550;BME280;67273;52.914;-0.982;2023-03-04T07:09:25;102805.22;;;18.14;39.20
53550;BME280;67273;52.914;-0.982;2023-03-04T07:11:50;102800.72;;;18.21;39.01
53550;BME280;67273;52.914;-0.982;2023-03-04T07:14:16;102802.16;;;18.32;38.79
53550;BME280;67273;52.914;-0.982;2023-03-04T07:16:43;102809.75;;;18.37;38.88
53550;BME280;67273;52.914;-0.982;2023-03-04T07:19:09;102811.75;;;18.43;38.86
53550;BME280;67273;52.914;-0.982;2023-03-04T07:21:35;102812.22;;;18.47;38.83
53550;BME280;67273;52.914;-0.982;2023-03-04T07:24:00;102818.31;;;18.49;38.76
53550;BME280;67273;52.914;-0.982;2023-03-04T07:26:26;102820.03;;;18.50;38.93
53550;BME280;67273;52.914;-0.982;2023-03-04T07:28:52;102817.28;;;18.50;38.96
53550;BME280;67273;52.914;-0.982;2023-03-04T07:31:21;102816.91;;;18.53;38.83
53550;BME280;67273;52.914;-0.982;2023-03-04T07:33:49;102819.63;;;18.53;38.80
53550;BME280;67273;52.914;-0.982;2023-03-04T07:36:15;102817.59;;;18.55;38.82
53550;BME280;67273;52.914;-0.982;2023-03-04T07:38:42;102825.75;;;18.55;38.84
53550;BME280;67273;52.914;-0.982;2023-03-04T07:41:08;102828.47;;;18.55;38.94
53550;BME280;67273;52.914;-0.982;2023-03-04T07:43:34;102834.75;;;18.55;38.96
53550;BME280;67273;52.914;-0.982;2023-03-04T07:46:00;102836.66;;;18.55;39.00
53550;BME280;67273;52.914;-0.982;2023-03-04T07:48:26;102838.50;;;18.54;38.92
53550;BME280;67273;52.914;-0.982;2023-03-04T07:51:03;102836.66;;;18.55;38.97
53550;BME280;67273;52.914;-0.982;2023-03-04T07:53:30;102839.38;;;18.55;39.06
53550;BME280;67273;52.914;-0.982;2023-03-04T07:55:55;102834.94;;;18.54;39.00
53550;BME280;67273;52.914;-0.982;2023-03-04T07:58:21;102841.41;;;18.53;39.05
53550;BME280;67273;52.914;-0.982;2023-03-04T08:00:47;102841.41;;;18.53;39.04
53550;BME280;67273;52.914;-0.982;2023-03-04T08:03:13;102833.44;;;18.51;38.91
53550;BME280;67273;52.914;-0.982;2023-03-04T08:05:38;102837.19;;;18.50;38.71
53550;BME280;67273;52.914;-0.982;2023-03-04T08:08:05;102838.03;;;18.51;38.82
53550;BME280;67273;52.914;-0.982;2023-03-04T08:10:31;102840.94;;;18.49;38.83
53550;BME280;67273;52.914;-0.982;2023-03-04T08:12:57;102838.41;;;18.48;38.69
53550;BME280;67273;52.914;-0.982;2023-03-04T08:15:23;102840.09;;;18.49;38.66
53550;BME280;67273;52.914;-0.982;2023-03-04T08:17:49;102836.72;;;18.47;38.64
53550;BME280;67273;52.914;-0.982;2023-03-04T08:20:15;102834.00;;;18.47;38.60
53550;BME280;67273;52.914;-0.982;2023-03-04T08:22:41;102841.31;;;18.46;38.67
53550;BME280;67273;52.914;-0.982;2023-03-04T08:25:08;102835.00;;;18.46;38.83
53550;BME280;67273;52.914;-0.982;2023-03-04T08:27:34;102836.06;;;18.45;38.72
53550;BME280;67273;52.914;-0.982;2023-03-04T08:30:02;102826.19;;;18.43;38.92
53550;BME280;67273;52.914;-0.982;2023-03-04T08:32:27;102833.69;;;18.41;38.49
53550;BME280;67273;52.914;-0.982;2023-03-04T08:34:53;102836.41;;;18.41;38.75
53550;BME280;67273;52.914;-0.982;2023-03-04T08:37:20;102826.59;;;18.40;38.67
53550;BME280;67273;52.914;-0.982;2023-03-04T08:39:46;102833.03;;;18.39;38.72
53550;BME280;67273;52.914;-0.982;2023-03-04T08:42:13;102834.06;;;18.38;38.73
53550;BME280;67273;52.914;-0.982;2023-03-04T08:44:39;102833.22;;;18.38;38.68
53550;BME280;67273;52.914;-0.982;2023-03-04T08:47:05;102834.25;;;18.37;38.81
53550;BME280;67273;52.914;-0.982;2023-03-04T08:49:33;102827.97;;;18.36;38.68
53550;BME280;67273;52.914;-0.982;2023-03-04T08:51:59;102823.56;;;18.35;38.75
53550;BME280;67273;52.914;-0.982;2023-03-04T08:54:25;102824.56;;;18.34;38.59
53550;BME280;67273;52.914;-0.982;2023-03-04T08:56:50;102828.31;;;18.33;38.52
53550;BME280;67273;52.914;-0.982;2023-03-04T08:59:17;102829.38;;;18.32;38.45
53550;BME280;67273;52.914;-0.982;2023-03-04T09:01:43;102826.66;;;18.32;40.51
53550;BME280;67273;52.914;-0.982;2023-03-04T09:04:09;102824.94;;;18.31;40.50
53550;BME280;67273;52.914;-0.982;2023-03-04T09:06:35;102829.72;;;18.29;40.01
53550;BME280;67273;52.914;-0.982;2023-03-04T09:09:00;102826.34;;;18.27;39.52
53550;BME280;67273;52.914;-0.982;2023-03-04T09:11:26;102828.22;;;18.27;39.46
53550;BME280;67273;52.914;-0.982;2023-03-04T09:13:52;102822.13;;;18.24;39.12
53550;BME280;67273;52.914;-0.982;2023-03-04T09:16:19;102826.72;;;18.24;39.06
53550;BME280;67273;52.914;-0.982;2023-03-04T09:18:45;102820.59;;;18.22;39.02
53550;BME280;67273;52.914;-0.982;2023-03-04T09:21:11;102822.50;;;18.21;38.99
53550;BME280;67273;52.914;-0.982;2023-03-04T09:23:37;102822.66;;;18.20;38.85
53550;BME280;67273;52.914;-0.982;2023-03-04T09:26:13;102815.34;;;18.20;38.84
53550;BME280;67273;52.914;-0.982;2023-03-04T09:28:38;102818.25;;;18.19;39.18
53550;BME280;67273;52.914;-0.982;2023-03-04T09:31:10;102816.56;;;18.18;38.82
53550;BME280;67273;52.914;-0.982;2023-03-04T09:33:37;102820.31;;;18.17;38.94
53550;BME280;67273;52.914;-0.982;2023-03-04T09:36:03;102807.75;;;18.16;38.99
53550;BME280;67273;52.914;-0.982;2023-03-04T09:38:29;102816.94;;;18.15;38.93
53550;BME280;67273;52.914;-0.982;2023-03-04T09:40:55;102815.22;;;18.14;38.83
53550;BME280;67273;52.914;-0.982;2023-03-04T09:43:25;102823.59;;;18.12;38.72
53550;BME280;67273;52.914;-0.982;2023-03-04T09:45:55;102815.63;;;18.11;38.79
53550;BME280;67273;52.914;-0.982;2023-03-04T09:48:23;102819.34;;;18.10;38.81
53550;BME280;67273;52.914;-0.982;2023-03-04T09:51:01;102813.06;;;18.09;38.71
53550;BME280;67273;52.914;-0.982;2023-03-04T09:53:35;102821.41;;;18.08;38.68
53550;BME280;67273;52.914;-0.982;2023-03-04T09:56:05;102817.84;;;18.07;38.81
53550;BME280;67273;52.914;-0.982;2023-03-04T09:58:41;102819.06;;;18.04;38.86
53550;BME280;67273;52.914;-0.982;2023-03-04T10:01:13;102824.50;;;18.04;38.82
53550;BME280;67273;52.914;-0.982;2023-03-04T10:03:43;102820.09;;;18.03;38.76
53550;BME280;67273;52.914;-0.982;2023-03-04T10:06:17;102818.38;;;18.02;38.67
53550;BME280;67273;52.914;-0.982;2023-03-04T10:08:49;102816.72;;;18.01;38.56
53550;BME280;67273;52.914;-0.982;2023-03-04T10:11:22;102817.72;;;18.00;38.67
53550;BME280;67273;52.914;-0.982;2023-03-04T10:14:01;102819.44;;;17.70;39.19
53550;BME280;67273;52.914;-0.982;2023-03-04T10:16:33;102828.34;;;17.33;39.52
53550;BME280;67273;52.914;-0.982;2023-03-04T10:19:12;102822.59;;;17.27;40.45
53550;BME280;67273;52.914;-0.982;2023-03-04T10:21:45;102825.34;;;17.51;39.87
53550;BME280;67273;52.914;-0.982;2023-03-04T10:24:12;102823.34;;;17.67;38.98
53550;BME280;67273;52.914;-0.982;2023-03-04T10:26:41;102820.28;;;17.71;39.82
53550;BME280;67273;52.914;-0.982;2023-03-04T10:29:13;102827.09;;;17.75;39.71
53550;BME280;67273;52.914;-0.982;2023-03-04T10:31:40;102823.31;;;17.76;39.50
53550;BME280;67273;52.914;-0.982;2023-03-04T10:34:09;102814.50;;;17.74;39.39
53550;BME280;67273;52.914;-0.982;2023-03-04T10:36:45;102819.94;;;17.74;39.33
53550;BME280;67273;52.914;-0.982;2023-03-04T10:39:18;102816.22;;;17.75;39.11
53550;BME280;67273;52.914;-0.982;2023-03-04T10:41:54;102813.50;;;17.75;39.04
53550;BME280;67273;52.914;-0.982;2023-03-04T10:44:22;102817.03;;;17.75;38.98
53550;BME280;67273;52.914;-0.982;2023-03-04T10:46:48;102808.06;;;17.75;38.87
53550;BME280;67273;52.914;-0.982;2023-03-04T10:49:15;102818.72;;;17.76;38.71
53550;BME280;67273;52.914;-0.982;2023-03-04T10:51:45;102805.50;;;17.73;38.69
53550;BME280;67273;52.914;-0.982;2023-03-04T10:54:21;102809.06;;;17.74;39.03
53550;BME280;67273;52.914;-0.982;2023-03-04T10:56:59;102805.50;;;17.73;38.94
53550;BME280;67273;52.914;-0.982;2023-03-04T10:59:38;102806.53;;;17.72;38.71
53550;BME280;67273;52.914;-0.982;2023-03-04T11:02:17;102794.81;;;17.72;38.87
53550;BME280;67273;52.914;-0.982;2023-03-04T11:04:49;102796.66;;;17.71;38.81
53550;BME280;67273;52.914;-0.982;2023-03-04T11:07:16;102798.53;;;17.71;38.75
53550;BME280;67273;52.914;-0.982;2023-03-04T11:09:43;102793.09;;;17.71;38.76
53550;BME280;67273;52.914;-0.982;2023-03-04T11:12:10;102800.59;;;17.68;38.76
53550;BME280;67273;52.914;-0.982;2023-03-04T11:14:39;102793.47;;;17.67;38.78
53550;BME280;67273;52.914;-0.982;2023-03-04T11:17:17;102797.22;;;17.66;38.88
53550;BME280;67273;52.914;-0.982;2023-03-04T11:19:44;102800.94;;;17.65;38.90
53550;BME280;67273;52.914;-0.982;2023-03-04T11:22:14;102799.28;;;17.64;38.63
53550;BME280;67273;52.914;-0.982;2023-03-04T11:24:42;102796.56;;;17.64;38.77
53550;BME280;67273;52.914;-0.982;2023-03-04T11:27:14;102790.25;;;17.64;38.96
53550;BME280;67273;52.914;-0.982;2023-03-04T11:29:45;102789.41;;;17.63;38.70
53550;BME280;67273;52.914;-0.982;2023-03-04T11:32:17;102790.47;;;17.62;39.01
53550;BME280;67273;52.914;-0.982;2023-03-04T11:34:48;102792.97;;;17.64;39.03
53550;BME280;67273;52.914;-0.982;2023-03-04T11:37:20;102788.41;;;17.64;38.87
53550;BME280;67273;52.914;-0.982;2023-03-04T11:39:51;102783.63;;;17.66;38.81
53550;BME280;67273;52.914;-0.982;2023-03-04T11:42:25;102786.00;;;17.70;39.35
53550;BME280;67273;52.914;-0.982;2023-03-04T11:44:54;102781.22;;;17.72;38.72
53550;BME280;67273;52.914;-0.982;2023-03-04T11:47:35;102772.50;;;17.76;38.39
53550;BME280;67273;52.914;-0.982;2023-03-04T11:50:17;102769.25;;;17.81;38.50
53550;BME280;67273;52.914;-0.982;2023-03-04T11:56:00;102759.31;;;17.96;38.38
53550;BME280;67273;52.914;-0.982;2023-03-04T11:58:44;102756.50;;;18.04;38.23
53550;BME280;67273;52.914;-0.982;2023-03-04T12:01:15;102752.00;;;18.12;38.36
53550;BME280;67273;52.914;-0.982;2023-03-04T12:04:07;102749.22;;;18.20;38.06
53550;BME280;67273;52.914;-0.982;2023-03-04T12:06:44;102750.63;;;18.31;37.92
53550;BME280;67273;52.914;-0.982;2023-03-04T12:09:26;102733.34;;;18.38;37.89
53550;BME280;67273;52.914;-0.982;2023-03-04T12:12:04;102738.72;;;18.47;37.53
53550;BME280;67273;52.914;-0.982;2023-03-04T12:14:39;102735.91;;;18.55;37.53
53550;BME280;67273;52.914;-0.982;2023-03-04T12:20:06;102727.72;;;18.70;37.49
53550;BME280;67273;52.914;-0.982;2023-03-04T12:22:43;102721.91;;;18.73;37.51
53550;BME280;67273;52.914;-0.982;2023-03-04T12:25:25;102717.97;;;18.75;37.37
53550;BME280;67273;52.914;-0.982;2023-03-04T12:28:02;102710.44;;;18.77;37.38
53550;BME280;67273;52.914;-0.982;2023-03-04T12:30:40;102712.78;;;18.80;37.22
53550;BME280;67273;52.914;-0.982;2023-03-04T12:33:17;102700.91;;;18.82;37.29
53550;BME280;67273;52.914;-0.982;2023-03-04T12:35:58;102691.00;;;18.80;37.35
53550;BME280;67273;52.914;-0.982;2023-03-04T12:38:37;102694.41;;;18.83;37.07
53550;BME280;67273;52.914;-0.982;2023-03-04T12:41:22;102691.69;;;18.83;37.30
53550;BME280;67273;52.914;-0.982;2023-03-04T12:44:00;102690.66;;;18.84;37.37
53550;BME280;67273;52.914;-0.982;2023-03-04T12:46:36;102686.06;;;18.84;37.31
53550;BME280;67273;52.914;-0.982;2023-03-04T12:49:18;102685.22;;;18.84;37.30
53550;BME280;67273;52.914;-0.982;2023-03-04T12:51:55;102684.34;;;18.83;37.33